Time;durP1;ratioP1;P1;durP2;ratioP2;P2;SDS_P1;SDS_P2;PMS_P1;PMS_P2;Temp;Humidity;BMP_temperature;BMP_pressure;BME280_temperature;BME280_humidity;BME280_pressure;Samples;Min_cycle;Max_cycle;Signal;HPM_P1;HPM_P2
2021/01/27 00:02:10;;;;;;;5.13;3.50;;;-0.50;99.90;;;;;;4754611;30;20056;-77
2021/01/27 00:04:42;;;;;;;5.22;3.10;;;-0.50;99.90;;;;;;4747516;30;20052;-77
2021/01/27 00:07:13;;;;;;;4.88;3.05;;;-0.60;99.90;;;;;;4750565;30;20142;-77
2021/01/27 00:09:44;;;;;;;5.68;3.30;;;-0.60;99.90;;;;;;4751565;30;20138;-77
2021/01/27 00:12:15;;;;;;;5.50;3.30;;;-0.60;99.90;;;;;;4752502;30;20508;-77
2021/01/27 00:14:47;;;;;;;6.35;3.60;;;-0.70;99.90;;;;;;4752441;30;20130;-77
2021/01/27 00:17:18;;;;;;;5.20;2.95;;;-0.70;99.90;;;;;;4752480;30;20142;-77
2021/01/27 00:19:49;;;;;;;8.35;3.17;;;-0.70;99.90;;;;;;4766995;30;20518;-77
2021/01/27 00:22:20;;;;;;;9.73;3.22;;;-0.80;99.90;;;;;;4753067;30;20056;-77
2021/01/27 00:24:51;;;;;;;5.78;2.88;;;-0.90;99.90;;;;;;4752194;30;20067;-77
2021/01/27 00:27:23;;;;;;;3.88;2.95;;;-0.90;99.90;;;;;;4752932;30;20071;-77
2021/01/27 00:29:54;;;;;;;3.78;2.70;;;-0.80;99.90;;;;;;4752058;30;20508;-77
2021/01/27 00:32:28;;;;;;;7.05;2.92;;;-0.90;99.90;;;;;;4753150;30;20044;-77
2021/01/27 00:34:59;;;;;;;;;;;-0.90;99.90;;;;;;4752141;30;20068;-77
2021/01/27 00:37:30;;;;;;;5.30;3.40;;;-0.90;99.90;;;;;;4752866;30;19932;-77
2021/01/27 00:40:03;;;;;;;7.20;2.85;;;-1.00;99.90;;;;;;4752025;30;20047;-77
2021/01/27 00:42:35;;;;;;;4.03;3.10;;;-1.10;99.90;;;;;;4752294;30;20051;-77
2021/01/27 00:45:07;;;;;;;5.68;3.25;;;-1.10;99.90;;;;;;4751787;30;20424;-77
2021/01/27 00:47:38;;;;;;;5.22;3.35;;;-1.10;99.90;;;;;;4752707;30;20051;-77
2021/01/27 00:50:11;;;;;;;7.90;3.33;;;-1.20;99.90;;;;;;4752006;30;20160;-77
2021/01/27 00:52:48;;;;;;;5.10;3.10;;;-1.20;99.90;;;;;;4753290;30;20050;-76
2021/01/27 00:55:28;;;;;;;7.35;2.80;;;-1.30;99.90;;;;;;4752090;30;20047;-77
2021/01/27 00:58:00;;;;;;;5.63;3.08;;;-1.30;99.90;;;;;;4751638;30;20693;-77
2021/01/27 01:00:34;;;;;;;3.92;2.75;;;-1.30;99.90;;;;;;4752562;30;20055;-77
2021/01/27 01:03:11;;;;;;;4.80;2.95;;;-1.40;99.90;;;;;;4753359;30;20694;-77
2021/01/27 01:05:45;;;;;;;5.63;3.43;;;-1.40;99.90;;;;;;4752480;30;20563;-77
2021/01/27 01:08:18;;;;;;;4.97;2.78;;;-1.50;99.90;;;;;;4751910;30;20434;-76
2021/01/27 01:10:53;;;;;;;6.47;3.15;;;-1.50;99.90;;;;;;4752360;30;20087;-77
2021/01/27 01:13:26;;;;;;;6.88;3.30;;;-1.50;99.90;;;;;;4751818;30;20083;-77
2021/01/27 01:15:58;;;;;;;9.13;2.92;;;-1.50;99.90;;;;;;4751360;30;20047;-77
2021/01/27 01:18:29;;;;;;;7.78;3.20;;;-1.50;99.90;;;;;;4751989;30;20109;-77
2021/01/27 01:21:00;;;;;;;7.35;2.85;;;-1.50;99.90;;;;;;4751708;30;20496;-77
2021/01/27 01:23:31;;;;;;;8.40;3.00;;;-1.50;99.90;;;;;;4751475;30;20142;-76
2021/01/27 01:26:03;;;;;;;7.50;3.15;;;-1.50;99.90;;;;;;4766495;30;20057;-77
2021/01/27 01:28:34;;;;;;;6.63;2.70;;;-1.50;99.90;;;;;;4751874;30;20051;-77
2021/01/27 01:31:06;;;;;;;6.28;3.58;;;-1.50;99.90;;;;;;4752153;30;20056;-77
2021/01/27 01:33:33;;;;;;;4.93;3.08;;;-1.60;99.90;;;;;;4751558;30;20079;-77
2021/01/27 01:36:04;;;;;;;4.13;2.83;;;-1.60;99.90;;;;;;4751576;30;20146;-77
2021/01/27 01:38:35;;;;;;;3.83;2.65;;;-1.60;99.90;;;;;;4766058;30;20522;-77
2021/01/27 01:41:07;;;;;;;4.25;2.70;;;-1.60;99.90;;;;;;4752155;30;20056;-77
2021/01/27 01:43:40;;;;;;;4.38;2.92;;;-1.60;99.90;;;;;;4752107;30;20061;-77
2021/01/27 01:46:21;;;;;;;6.07;2.53;;;-1.60;99.90;;;;;;4751309;30;20083;-78
2021/01/27 01:48:52;;;;;;;4.82;2.88;;;-1.60;99.90;;;;;;4750761;30;20154;-77
2021/01/27 01:51:31;;;;;;;4.90;2.67;;;-1.70;99.90;;;;;;4752196;30;20058;-76
2021/01/27 01:54:41;;;;;;;5.20;2.45;;;-1.70;99.90;;;;;;4751546;30;20055;-77
2021/01/27 01:57:25;;;;;;;5.63;2.30;;;-1.70;99.90;;;;;;4681339;30;20430;-77
2021/01/27 02:00:07;;;;;;;4.32;2.60;;;-1.70;99.90;;;;;;4750484;30;20059;-77
2021/01/27 02:02:41;;;;;;;5.95;3.20;;;-1.80;99.90;;;;;;4751135;30;20486;-77
2021/01/27 02:05:20;;;;;;;5.78;3.08;;;-1.70;99.90;;;;;;4751672;30;20526;-77
2021/01/27 02:07:52;;;;;;;5.85;2.78;;;-1.80;99.90;;;;;;4765640;30;20050;-77
2021/01/27 02:10:24;;;;;;;5.40;2.10;;;-1.80;99.90;;;;;;4751171;30;20551;-77
2021/01/27 02:13:20;;;;;;;4.38;2.65;;;-1.80;99.90;;;;;;4751519;30;20058;-77
2021/01/27 02:16:03;;;;;;;4.63;2.80;;;-1.80;99.90;;;;;;4750635;30;20051;-77
2021/01/27 02:18:47;;;;;;;4.38;2.45;;;-1.80;99.90;;;;;;4750626;30;20056;-77
2021/01/27 02:21:55;;;;;;;4.85;2.92;;;-1.80;99.90;;;;;;4750712;30;20079;-77
2021/01/27 02:24:45;;;;;;;4.40;2.85;;;-1.80;99.90;;;;;;4750655;30;20504;-77
2021/01/27 02:27:40;;;;;;;4.30;3.25;;;-1.90;99.90;;;;;;4752361;30;20047;-77
2021/01/27 02:30:30;;;;;;;5.22;2.53;;;-1.90;99.90;;;;;;4754199;30;20825;-77
2021/01/27 02:33:35;;;;;;;5.32;2.38;;;-2.00;99.90;;;;;;4754160;30;20767;-77
2021/01/27 02:36:31;;;;;;;4.60;2.97;;;-2.00;99.90;;;;;;4754983;30;20134;-77
2021/01/27 02:39:27;;;;;;;5.13;2.30;;;-2.00;99.90;;;;;;4753742;30;20131;-77
2021/01/27 02:42:16;;;;;;;3.72;2.20;;;-2.00;99.90;;;;;;4753819;30;20052;-77
2021/01/27 02:44:58;;;;;;;2.83;1.98;;;-2.00;99.90;;;;;;4753833;30;20047;-77
2021/01/27 02:48:01;;;;;;;5.20;2.55;;;-2.00;99.90;;;;;;4753576;30;20047;-77
2021/01/27 02:50:40;;;;;;;4.20;2.20;;;-2.00;99.90;;;;;;4695732;30;20074;-77
2021/01/27 02:53:26;;;;;;;6.28;2.75;;;-2.00;99.90;;;;;;4768757;30;20054;-77
2021/01/27 02:56:00;;;;;;;3.45;2.20;;;-2.00;99.90;;;;;;4753545;30;20134;-77
2021/01/27 02:58:35;;;;;;;4.35;2.60;;;-2.00;99.90;;;;;;4753871;30;20076;-76
2021/01/27 03:01:07;;;;;;;5.70;2.28;;;-2.00;99.90;;;;;;4753917;30;20102;-77
2021/01/27 03:03:43;;;;;;;3.70;2.42;;;-2.00;99.90;;;;;;4753660;30;20537;-78
2021/01/27 03:06:18;;;;;;;7.75;2.28;;;-2.10;99.90;;;;;;4754428;30;20052;-77
2021/01/27 03:09:17;;;;;;;3.45;2.35;;;-2.10;99.90;;;;;;4768393;30;20242;-77
2021/01/27 03:11:49;;;;;;;4.75;1.88;;;-2.10;99.90;;;;;;4753696;30;20500;-77
2021/01/27 03:14:15;;;;;;;3.60;2.10;;;-2.20;99.90;;;;;;4753832;30;20052;-77
2021/01/27 03:16:57;;;;;;;3.10;2.10;;;-2.20;99.90;;;;;;4753296;30;20504;-77
2021/01/27 03:20:05;;;;;;;4.95;2.28;;;-2.20;99.90;;;;;;4754177;30;20062;-77
2021/01/27 03:22:41;;;;;;;4.22;2.63;;;-2.30;99.90;;;;;;4752972;30;20392;-77
2021/01/27 03:25:17;;;;;;;6.22;2.90;;;-2.30;99.90;;;;;;4739331;30;20577;-77
2021/01/27 03:28:09;;;;;;;6.20;2.67;;;-2.30;99.90;;;;;;4753550;30;20530;-77
2021/01/27 03:30:40;;;;;;;5.50;3.22;;;-2.40;99.90;;;;;;4768167;30;20126;-77
2021/01/27 03:33:32;;;;;;;4.38;2.58;;;-2.40;99.90;;;;;;4753339;30;20054;-77
2021/01/27 03:36:07;;;;;;;5.85;2.60;;;-2.40;99.90;;;;;;4753707;30;20135;-77
2021/01/27 03:38:48;;;;;;;4.20;2.60;;;-2.40;99.90;;;;;;4753454;30;20268;-77
2021/01/27 03:41:31;;;;;;;4.28;3.03;;;-2.40;99.90;;;;;;4753111;30;20492;-77
2021/01/27 03:44:52;;;;;;;6.80;3.83;;;-2.40;99.90;;;;;;4752966;30;20051;-77
2021/01/27 03:47:34;;;;;;;4.72;2.90;;;-2.50;99.90;;;;;;4742164;30;20070;-77
2021/01/27 03:50:14;;;;;;;6.70;3.92;;;-2.50;99.90;;;;;;4753601;30;20048;-77
2021/01/27 03:52:53;;;;;;;10.48;5.72;;;-2.60;99.90;;;;;;4752808;30;20064;-76
2021/01/27 03:55:32;;;;;;;12.18;8.88;;;-2.60;99.90;;;;;;4752899;30;20048;-77
2021/01/27 03:58:26;;;;;;;13.55;9.48;;;-2.60;99.90;;;;;;4752648;30;20170;-77
2021/01/27 04:01:06;;;;;;;10.93;8.15;;;-2.60;99.90;;;;;;4752544;30;20060;-77
2021/01/27 04:03:38;;;;;;;8.88;5.68;;;-2.60;99.90;;;;;;4753372;30;20043;-77
2021/01/27 04:06:10;;;;;;;7.95;5.18;;;-2.60;99.90;;;;;;4752643;30;20128;-78
2021/01/27 04:08:41;;;;;;;9.02;3.90;;;-2.70;99.90;;;;;;4753202;30;20146;-77
2021/01/27 04:11:12;;;;;;;7.10;2.90;;;-2.70;99.90;;;;;;4738502;30;20143;-77
2021/01/27 04:13:44;;;;;;;4.28;3.00;;;-2.80;99.90;;;;;;4752556;30;20051;-77
2021/01/27 04:16:15;;;;;;;6.35;2.85;;;-2.80;99.90;;;;;;4753594;30;20474;-77
2021/01/27 04:18:46;;;;;;;6.53;3.00;;;-2.80;99.90;;;;;;4752555;30;20267;-77
2021/01/27 04:21:18;;;;;;;6.10;3.40;;;-2.80;99.90;;;;;;4753153;30;20090;-77
2021/01/27 04:23:49;;;;;;;5.80;2.83;;;-2.80;99.90;;;;;;4752267;30;20062;-77
2021/01/27 04:26:21;;;;;;;3.95;2.60;;;-2.80;99.90;;;;;;4752853;30;20139;-77
2021/01/27 04:28:52;;;;;;;4.60;2.55;;;-2.90;99.90;;;;;;4752012;30;20139;-77
2021/01/27 04:31:23;;;;;;;6.45;3.47;;;-2.90;99.90;;;;;;4752883;30;20071;-77
2021/01/27 04:33:55;;;;;;;8.38;4.45;;;-2.80;99.90;;;;;;4767075;30;20492;-77
2021/01/27 04:36:26;;;;;;;5.63;2.88;;;-2.80;99.90;;;;;;4752688;30;20192;-77
2021/01/27 04:38:57;;;;;;;5.32;3.72;;;-2.80;99.90;;;;;;4751846;30;20058;-77
2021/01/27 04:41:28;;;;;;;3.60;2.58;;;-2.80;99.90;;;;;;4752140;30;20593;-77
2021/01/27 04:44:00;;;;;;;3.78;2.47;;;-2.90;99.90;;;;;;4752857;30;20058;-77
2021/01/27 04:46:38;;;;;;;4.65;3.28;;;-2.80;99.90;;;;;;4752698;30;20079;-77
2021/01/27 04:49:20;;;;;;;4.53;2.85;;;-2.80;99.90;;;;;;4766055;30;20044;-77
2021/01/27 04:52:06;;;;;;;3.70;2.35;;;-2.90;99.90;;;;;;4738140;30;20047;-77
2021/01/27 04:54:54;;;;;;;4.10;2.63;;;-2.80;99.90;;;;;;4751778;30;20048;-77
2021/01/27 04:57:47;;;;;;;4.78;2.80;;;-2.80;99.90;;;;;;4752622;30;20109;-77
2021/01/27 05:00:31;;;;;;;5.93;3.45;;;-2.90;99.90;;;;;;4751930;30;20058;-78
2021/01/27 05:03:05;;;;;;;;;;;-2.90;99.90;;;;;;4752945;30;20066;-77
2021/01/27 05:05:38;;;;;;;4.22;2.53;;;-2.90;99.90;;;;;;4751616;30;19983;-77
2021/01/27 05:08:20;;;;;;;4.20;2.53;;;-2.80;99.90;;;;;;4751354;30;20055;-77
2021/01/27 05:11:00;;;;;;;3.47;2.33;;;-2.80;99.90;;;;;;4751702;30;20075;-77
2021/01/27 05:13:59;;;;;;;4.28;2.50;;;-2.80;99.90;;;;;;4751601;30;20408;-77
2021/01/27 05:16:32;;;;;;;3.15;2.00;;;-2.80;99.90;;;;;;4736715;30;20476;-77
2021/01/27 05:19:07;;;;;;;3.10;2.30;;;-2.80;99.90;;;;;;4752099;30;20062;-77
2021/01/27 05:21:45;;;;;;;7.78;2.40;;;-2.80;99.90;;;;;;4751460;30;20071;-77
2021/01/27 05:24:16;;;;;;;3.63;1.90;;;-2.80;99.90;;;;;;4752200;30;20044;-77
2021/01/27 05:27:05;;;;;;;6.35;2.33;;;-2.80;99.90;;;;;;4754901;30;20138;-77
2021/01/27 05:29:54;;;;;;;3.17;2.42;;;-2.90;99.90;;;;;;4737420;30;20150;-78
2021/01/27 05:32:25;;;;;;;4.95;2.53;;;-2.90;99.90;;;;;;4752534;30;20082;-78
2021/01/27 05:34:56;;;;;;;2.97;2.33;;;-2.90;99.90;;;;;;4766103;30;20126;-78
2021/01/27 05:37:28;;;;;;;4.85;2.38;;;-2.90;99.90;;;;;;4752283;30;20134;-77
2021/01/27 05:40:31;;;;;;;2.85;2.25;;;-2.90;99.90;;;;;;4751312;30;20044;-77
2021/01/27 05:43:22;;;;;;;2.30;2.00;;;-2.90;99.90;;;;;;4751812;30;20050;-77
2021/01/27 05:45:54;;;;;;;6.60;2.22;;;-3.00;99.90;;;;;;4751324;30;20536;-78
2021/01/27 05:48:39;;;;;;;3.88;2.08;;;-3.00;99.90;;;;;;4751173;30;20047;-78
2021/01/27 05:51:06;;;;;;;5.10;2.15;;;-3.00;99.90;;;;;;4751832;30;20126;-77
2021/01/27 05:53:37;;;;;;;3.00;2.03;;;-3.00;99.90;;;;;;4752199;30;20052;-76
2021/01/27 05:56:09;;;;;;;4.45;2.28;;;-3.00;99.90;;;;;;4751841;30;20142;-77
2021/01/27 05:58:44;;;;;;;3.70;2.38;;;-3.00;99.90;;;;;;4752600;30;20509;-78
2021/01/27 06:01:33;;;;;;;7.43;3.40;;;-3.10;99.90;;;;;;4751776;30;20087;-78
2021/01/27 06:04:10;;;;;;;4.75;3.00;;;-3.10;99.90;;;;;;4754793;30;20051;-77
2021/01/27 06:06:48;;;;;;;7.53;4.30;;;-3.10;99.90;;;;;;4740814;30;20051;-77
2021/01/27 06:09:51;;;;;;;5.80;3.05;;;-3.10;99.90;;;;;;4740667;30;20058;-77
2021/01/27 06:12:23;;;;;;;6.72;4.78;;;-3.10;99.90;;;;;;4755465;30;20124;-77
2021/01/27 06:15:03;;;;;;;4.40;2.65;;;-3.10;99.90;;;;;;4755343;30;20070;-78
2021/01/27 06:17:47;;;;;;;6.60;3.47;;;-3.10;99.90;;;;;;4756141;30;20047;-78
2021/01/27 06:20:33;;;;;;;9.15;4.35;;;-3.10;99.90;;;;;;4754844;30;20082;-78
2021/01/27 06:23:21;;;;;;;5.10;3.03;;;-3.10;99.90;;;;;;4753395;30;20118;-77
2021/01/27 06:26:04;;;;;;;5.13;2.45;;;-3.10;99.90;;;;;;4739903;30;20062;-77
2021/01/27 06:29:06;;;;;;;4.55;1.98;;;-3.10;99.90;;;;;;4739342;30;20058;-77
2021/01/27 06:32:08;;;;;;;3.70;2.42;;;-3.10;99.90;;;;;;4739648;30;20051;-78
2021/01/27 06:35:12;;;;;;;4.57;2.58;;;-3.00;99.90;;;;;;4753638;30;20056;-77
2021/01/27 06:38:07;;;;;;;4.22;1.88;;;-3.00;99.90;;;;;;4722989;30;20163;-78
2021/01/27 06:41:03;;;;;;;2.80;2.00;;;-3.00;99.90;;;;;;4753668;30;20074;-77
2021/01/27 06:43:46;;;;;;;2.92;1.77;;;-3.00;99.90;;;;;;4753375;30;20055;-77
2021/01/27 06:46:29;;;;;;;3.30;1.83;;;-3.00;99.90;;;;;;4753903;30;20054;-78
2021/01/27 06:49:00;;;;;;;4.00;2.83;;;-3.00;99.90;;;;;;4752766;30;20048;-77
2021/01/27 06:51:59;;;;;;;6.70;2.72;;;-3.00;99.90;;;;;;4753273;30;20158;-78
2021/01/27 06:55:12;;;;;;;3.25;2.38;;;-2.90;99.90;;;;;;4753326;30;20512;-78
2021/01/27 06:58:16;;;;;;;6.35;2.35;;;-2.90;99.90;;;;;;4679341;30;20080;-78
2021/01/27 07:01:26;;;;;;;5.40;2.00;;;-2.80;99.90;;;;;;4679430;30;20050;-78
2021/01/27 07:04:09;;;;;;;3.58;2.05;;;-2.80;99.90;;;;;;4730231;30;20302;-78
2021/01/27 07:06:44;;;;;;;4.90;3.93;;;-2.70;99.90;;;;;;4767741;30;20056;-77
2021/01/27 07:09:22;;;;;;;4.75;3.58;;;-2.70;99.90;;;;;;4752887;30;20052;-79
2021/01/27 07:12:23;;;;;;;6.18;3.72;;;-2.70;99.90;;;;;;4750882;30;20594;-77
2021/01/27 07:15:19;;;;;;;6.60;4.93;;;-2.70;99.90;;;;;;4749571;30;20051;-78
2021/01/27 07:18:05;;;;;;;7.55;3.42;;;-2.70;99.90;;;;;;4753209;30;20133;-77
2021/01/27 07:20:48;;;;;;;6.20;4.72;;;-2.70;99.90;;;;;;4753302;30;20084;-77
2021/01/27 07:23:46;;;;;;;8.23;4.97;;;-2.70;99.90;;;;;;4752794;30;20083;-77
2021/01/27 07:26:24;;;;;;;9.52;4.82;;;-2.80;99.90;;;;;;4747169;30;20524;-77
2021/01/27 07:29:10;;;;;;;8.68;4.88;;;-2.80;99.90;;;;;;4735716;30;20127;-78
2021/01/27 07:31:45;;;;;;;20.88;10.23;;;-2.90;99.90;;;;;;4750767;30;20052;-78
2021/01/27 07:34:38;;;;;;;11.77;7.15;;;-2.90;99.90;;;;;;4735585;30;20079;-78
2021/01/27 07:37:32;;;;;;;9.57;6.13;;;-2.90;99.90;;;;;;4749705;30;20078;-78
2021/01/27 07:40:14;;;;;;;36.50;27.13;;;-2.80;99.90;;;;;;4735089;30;20505;-77
2021/01/27 07:42:58;;;;;;;29.67;22.83;;;-2.70;99.90;;;;;;4735079;30;20059;-77
2021/01/27 07:45:37;;;;;;;;;;;-2.80;99.90;;;;;;4750186;30;20048;-77
2021/01/27 07:48:22;;;;;;;10.43;5.43;;;-2.70;99.90;;;;;;4749350;30;19926;-77
2021/01/27 07:51:00;;;;;;;4.65;2.13;;;-2.70;99.90;;;;;;4750242;30;20047;-77
2021/01/27 07:54:25;;;;;;;2.42;1.58;;;-2.50;99.90;;;;;;4744005;30;20055;-78
2021/01/27 07:57:27;;;;;;;2.72;1.42;;;-2.10;99.90;;;;;;4742049;30;20055;-78
2021/01/27 08:00:37;;;;;;;2.28;1.70;;;-1.90;99.90;;;;;;4752279;30;20039;-78
2021/01/27 08:03:19;;;;;;;2.72;1.30;;;-1.80;99.90;;;;;;4720399;30;20051;-77
2021/01/27 08:05:56;;;;;;;3.50;2.40;;;-1.70;99.90;;;;;;4785076;30;20139;-77
2021/01/27 08:08:23;;;;;;;1.83;1.45;;;-1.60;99.90;;;;;;4769946;30;20051;-78
2021/01/27 08:10:54;;;;;;;8.80;3.10;;;-1.60;99.90;;;;;;4780087;30;20051;-77
2021/01/27 08:13:28;;;;;;;7.10;3.95;;;-1.50;99.90;;;;;;4738539;30;20047;-78
2021/01/27 08:16:13;;;;;;;8.68;4.68;;;-1.50;99.90;;;;;;4737975;30;20046;-78
2021/01/27 08:19:12;;;;;;;7.20;4.30;;;-1.50;99.90;;;;;;4751962;30;20091;-78
2021/01/27 08:21:46;;;;;;;21.65;10.60;;;-1.50;99.90;;;;;;4740175;30;20051;-78
2021/01/27 08:24:36;;;;;;;22.48;11.75;;;-1.60;99.90;;;;;;4764052;29;20047;-78
2021/01/27 08:27:13;;;;;;;15.88;7.93;;;-1.60;99.90;;;;;;4738253;30;20051;-78
2021/01/27 08:29:56;;;;;;;15.85;8.13;;;-1.70;99.90;;;;;;4739690;30;20048;-78
2021/01/27 08:32:33;;;;;;;10.70;5.40;;;-1.70;99.90;;;;;;4749222;30;20079;-78
2021/01/27 08:35:08;;;;;;;14.00;6.65;;;-1.60;99.90;;;;;;4734531;30;20726;-76
2021/01/27 08:37:41;;;;;;;15.32;7.43;;;-1.60;99.90;;;;;;4748701;30;20044;-78
2021/01/27 08:40:29;;;;;;;14.32;8.25;;;-1.50;99.90;;;;;;4734043;30;20054;-77
2021/01/27 08:43:02;;;;;;;17.83;10.13;;;-1.40;99.90;;;;;;4748902;30;20074;-78
2021/01/27 08:45:34;;;;;;;27.07;11.97;;;-1.40;99.90;;;;;;4751632;30;20143;-77
2021/01/27 08:48:04;;;;;;;24.00;12.40;;;-1.40;99.90;;;;;;4749631;30;20302;-78
2021/01/27 08:50:52;;;;;;;27.50;12.77;;;-1.30;99.90;;;;;;4752968;30;20047;-77
2021/01/27 08:53:47;;;;;;;31.55;13.70;;;-1.20;99.90;;;;;;4770478;30;20499;-78
2021/01/27 08:56:19;;;;;;;34.97;16.88;;;-1.20;99.90;;;;;;4751546;30;20152;-78
2021/01/27 08:59:26;;;;;;;7.80;3.40;;;-1.20;99.90;;;;;;4778692;30;20051;-77
2021/01/27 09:02:00;;;;;;;5.97;3.13;;;-1.10;99.90;;;;;;4752417;30;20135;-78
2021/01/27 09:04:36;;;;;;;7.35;4.18;;;-1.00;99.90;;;;;;4751272;30;20052;-78
2021/01/27 09:07:08;;;;;;;7.72;2.70;;;-1.00;99.90;;;;;;4752082;30;20059;-78
2021/01/27 09:09:40;;;;;;;5.10;2.83;;;-0.90;99.90;;;;;;4751881;30;20052;-77
2021/01/27 09:12:11;;;;;;;5.90;4.20;;;-0.80;99.90;;;;;;4751541;30;20054;-78
2021/01/27 09:14:52;;;;;;;6.85;4.72;;;-0.70;99.90;;;;;;4751429;30;20047;-76
2021/01/27 09:17:24;;;;;;;2.83;1.70;;;-0.60;99.90;;;;;;4751144;30;20083;-77
2021/01/27 09:19:55;;;;;;;2.92;1.80;;;-0.60;99.90;;;;;;4751062;30;20565;-77
2021/01/27 09:22:27;;;;;;;4.10;2.30;;;-0.60;99.90;;;;;;4750637;30;20075;-76
2021/01/27 09:24:59;;;;;;;3.03;1.55;;;-0.60;99.90;;;;;;4750610;30;20151;-77
2021/01/27 09:27:31;;;;;;;3.78;1.73;;;-0.50;99.90;;;;;;4765416;30;20127;-77
2021/01/27 09:30:05;;;;;;;3.55;1.90;;;-0.50;99.90;;;;;;4765856;30;20051;-77
2021/01/27 09:32:37;;;;;;;2.20;1.77;;;-0.40;99.90;;;;;;4750860;30;20051;-78
2021/01/27 09:35:19;;;;;;;3.42;1.63;;;-0.50;99.90;;;;;;4750523;30;20050;-77
2021/01/27 09:38:02;;;;;;;4.05;1.85;;;-0.50;99.90;;;;;;4732120;30;20516;-77
2021/01/27 09:40:52;;;;;;;3.33;1.70;;;-0.50;99.90;;;;;;4732557;30;20056;-77
2021/01/27 09:43:25;;;;;;;4.57;2.33;;;-0.50;99.90;;;;;;4718796;30;20532;-77
2021/01/27 09:45:56;;;;;;;3.00;1.55;;;-0.50;99.90;;;;;;4732759;30;20048;-77
2021/01/27 09:48:28;;;;;;;3.70;2.20;;;-0.50;99.90;;;;;;4746273;30;20420;-77
2021/01/27 09:50:58;;;;;;;4.18;1.90;;;-0.50;99.90;;;;;;4732559;30;20066;-77
2021/01/27 09:53:34;;;;;;;3.08;1.98;;;-0.50;99.90;;;;;;4740016;30;20115;-81
2021/01/27 10:03:34;;;;;;;3.28;2.85;;;-0.40;99.90;;;;;;5476927;24;20071;-82
2021/01/27 10:09:14;;;;;;;4.82;2.10;;;-0.40;99.90;;;;;;5327299;24;20458;-82
2021/01/27 10:11:41;;;;;;;4.22;2.20;;;-0.40;99.90;;;;;;4771291;30;20061;-80
2021/01/27 10:17:36;;;;;;;2.58;2.05;;;-0.30;99.90;;;;;;5755823;24;20100;-81
2021/01/27 10:20:21;;;;;;;3.33;2.05;;;-0.30;99.90;;;;;;4762816;30;20118;-81
2021/01/27 10:41:22;;;;;;;4.00;2.22;;;-0.10;99.90;;;;;;5451158;24;20412;-81
2021/01/27 10:43:52;;;;;;;5.05;1.80;;;0.00;99.90;;;;;;4739550;30;20124;-81
2021/01/27 10:46:29;;;;;;;3.40;2.15;;;0.00;99.90;;;;;;4745702;30;20058;-81
2021/01/27 10:48:59;;;;;;;3.28;1.75;;;0.00;99.90;;;;;;4762647;30;20488;-81
2021/01/27 10:51:26;;;;;;;4.45;2.40;;;-0.10;99.90;;;;;;4744070;30;20078;-80
2021/01/27 10:53:57;;;;;;;3.30;2.22;;;-0.10;99.90;;;;;;4760651;30;20534;-81
2021/01/27 10:56:24;;;;;;;4.07;2.25;;;-0.10;99.90;;;;;;4767962;24;20143;-81
2021/01/27 10:58:51;;;;;;;2.80;2.30;;;-0.10;99.90;;;;;;4725009;30;20055;-82
2021/01/27 11:01:17;;;;;;;2.80;2.00;;;-0.10;99.90;;;;;;4741100;30;20057;-81
2021/01/27 11:08:31;;;;;;;3.47;1.73;;;-0.10;99.90;;;;;;5070339;24;20063;-80
2021/01/27 11:10:59;;;;;;;4.35;2.15;;;-0.30;99.90;;;;;;4745182;30;20504;-81
2021/01/27 11:13:27;;;;;;;3.33;2.53;;;-0.20;99.90;;;;;;4759523;30;20055;-80
2021/01/27 11:15:54;;;;;;;4.32;2.75;;;-0.20;99.90;;;;;;4757844;30;20083;-80
2021/01/27 11:18:26;;;;;;;3.38;1.80;;;-0.30;99.90;;;;;;4742361;30;20051;-81
2021/01/27 11:20:53;;;;;;;3.08;2.10;;;-0.40;99.90;;;;;;4756396;30;20051;-81
2021/01/27 11:23:25;;;;;;;2.70;1.75;;;-0.40;99.90;;;;;;4741689;30;20051;-80
2021/01/27 11:25:56;;;;;;;3.63;1.98;;;-0.40;99.90;;;;;;4742156;30;20134;-80
2021/01/27 11:28:24;;;;;;;3.55;2.22;;;-0.40;99.90;;;;;;4755857;30;20466;-80
2021/01/27 11:30:56;;;;;;;5.10;2.42;;;-0.50;99.90;;;;;;4749045;30;20105;-80
2021/01/27 11:50:28;;;;;;;4.47;3.05;;;-0.80;99.90;;;;;;5288480;24;20060;-80
2021/01/27 11:52:55;;;;;;;4.07;2.80;;;-0.80;99.90;;;;;;4752520;30;20058;-80
2021/01/27 11:55:22;;;;;;;4.45;2.85;;;-0.80;99.90;;;;;;4773219;30;20062;-79
2021/01/27 11:57:54;;;;;;;4.45;2.90;;;-0.80;99.90;;;;;;4776270;29;20062;-81
2021/01/27 12:00:21;;;;;;;4.43;3.08;;;-0.80;99.90;;;;;;4780920;30;20063;-82
2021/01/27 12:02:48;;;;;;;5.47;2.60;;;-0.70;99.90;;;;;;4773931;30;20043;-80
2021/01/27 12:05:18;;;;;;;5.60;2.95;;;-0.70;99.90;;;;;;4772940;30;20146;-80
2021/01/27 12:07:51;;;;;;;5.05;2.53;;;-0.60;99.90;;;;;;4778973;30;20051;-80
2021/01/27 12:10:23;;;;;;;5.15;2.60;;;-0.60;99.90;;;;;;4782904;30;20050;-80
2021/01/27 13:04:12;;;;;;;4.90;2.75;;;-0.20;99.90;;;;;;4769210;30;20126;-78
2021/01/27 13:06:43;;;;;;;5.20;2.65;;;-0.30;99.90;;;;;;4769626;30;20095;-78
2021/01/27 13:09:15;;;;;;;4.30;2.85;;;-0.30;99.90;;;;;;4783243;30;20061;-78
2021/01/27 13:11:55;;;;;;;4.07;2.92;;;-0.40;99.90;;;;;;4768428;30;20052;-78
2021/01/27 13:14:26;;;;;;;4.30;2.95;;;-0.30;99.90;;;;;;4768739;30;20143;-78
2021/01/27 13:16:57;;;;;;;5.63;2.95;;;-0.30;99.90;;;;;;4768627;30;20047;-78
2021/01/27 13:19:29;;;;;;;4.28;2.70;;;-0.30;99.90;;;;;;4768368;30;20440;-78
2021/01/27 13:22:00;;;;;;;4.32;2.90;;;-0.30;99.90;;;;;;4768691;30;20456;-78
2021/01/27 13:24:31;;;;;;;3.58;2.88;;;-0.40;99.90;;;;;;4753325;30;20052;-78
2021/01/27 13:27:02;;;;;;;4.82;3.22;;;-0.40;99.90;;;;;;4765343;30;20146;-78
2021/01/27 13:29:34;;;;;;;3.95;2.80;;;-0.30;99.90;;;;;;4736402;30;20266;-79
2021/01/27 13:32:06;;;;;;;5.65;3.30;;;-0.30;99.90;;;;;;4751655;30;20054;-78
2021/01/27 13:34:37;;;;;;;5.22;2.63;;;-0.30;99.90;;;;;;4750273;30;20064;-78
2021/01/27 13:37:08;;;;;;;3.55;3.05;;;-0.30;99.90;;;;;;4750350;30;20044;-77
2021/01/27 13:39:40;;;;;;;3.97;2.83;;;-0.20;99.90;;;;;;4749313;30;20142;-78
2021/01/27 13:42:12;;;;;;;6.05;3.72;;;-0.10;99.90;;;;;;4765702;30;20040;-78
2021/01/27 13:44:43;;;;;;;5.85;3.92;;;-0.10;99.90;;;;;;4736549;30;20051;-78
2021/01/27 13:47:14;;;;;;;12.18;6.40;;;-0.10;99.90;;;;;;4750540;30;20058;-78
2021/01/27 13:49:40;;;;;;;6.90;4.35;;;0.00;99.90;;;;;;4750245;30;20500;-78
2021/01/27 13:52:07;;;;;;;4.65;3.13;;;0.00;99.90;;;;;;4750865;30;20054;-78
2021/01/27 13:54:38;;;;;;;3.20;2.53;;;0.20;99.90;;;;;;4737281;30;20146;-78
2021/01/27 13:57:09;;;;;;;4.40;3.03;;;0.30;99.90;;;;;;4749594;30;20052;-79
2021/01/27 13:59:40;;;;;;;3.10;2.50;;;0.30;99.90;;;;;;4735467;30;20056;-79
2021/01/27 14:02:11;;;;;;;3.78;2.88;;;0.40;99.90;;;;;;4736270;30;20516;-79
2021/01/27 14:04:43;;;;;;;7.40;4.63;;;0.30;99.90;;;;;;4751012;30;20583;-79
2021/01/27 14:07:09;;;;;;;3.83;3.05;;;0.40;99.90;;;;;;4735046;30;20062;-79
2021/01/27 14:09:40;;;;;;;6.80;3.67;;;0.40;99.90;;;;;;4737052;30;20079;-78
2021/01/27 14:12:07;;;;;;;4.00;2.80;;;0.40;99.90;;;;;;4750941;30;20086;-81
2021/01/27 14:14:33;;;;;;;3.42;2.60;;;0.40;99.90;;;;;;4755914;30;20063;-82
2021/01/27 14:41:21;;;;;;;3.92;3.53;;;-0.20;99.90;;;;;;4758034;30;20052;-79
2021/01/27 14:44:14;;;;;;;4.35;3.40;;;-0.20;99.90;;;;;;4739888;30;20582;-79
2021/01/27 14:46:41;;;;;;;3.45;2.50;;;-0.10;99.90;;;;;;4755458;30;20052;-80
2021/01/27 14:49:07;;;;;;;4.22;3.08;;;-0.10;99.90;;;;;;4742308;30;20077;-79
2021/01/27 14:51:39;;;;;;;3.03;2.55;;;-0.10;99.90;;;;;;4742948;30;20040;-79
2021/01/27 14:54:06;;;;;;;2.45;2.22;;;0.00;99.90;;;;;;4743014;30;20094;-79
2021/01/27 14:56:32;;;;;;;3.33;2.40;;;0.00;99.90;;;;;;4741761;30;20508;-79
2021/01/27 14:59:04;;;;;;;2.95;2.63;;;0.00;99.90;;;;;;4743044;30;20083;-79
2021/01/27 15:01:42;;;;;;;3.45;2.60;;;0.00;99.90;;;;;;4756670;30;20062;-79
2021/01/27 15:04:25;;;;;;;2.92;2.10;;;0.00;99.90;;;;;;4744043;30;20569;-79
2021/01/27 15:45:03;;;;;;;3.90;1.48;;;0.10;99.90;;;;;;5697152;24;20134;-80
2021/01/27 15:47:30;;;;;;;2.05;1.20;;;0.10;99.90;;;;;;4756427;30;20127;-81
2021/01/27 15:50:04;;;;;;;2.13;1.70;;;0.10;99.90;;;;;;4757035;30;20048;-80
2021/01/27 15:52:30;;;;;;;2.10;1.52;;;0.20;99.90;;;;;;4741723;30;20175;-81
2021/01/27 15:54:57;;;;;;;1.55;1.27;;;0.10;99.90;;;;;;4756017;30;20055;-81
2021/01/27 15:57:28;;;;;;;1.45;1.05;;;0.10;99.90;;;;;;4756196;30;20520;-81
2021/01/27 15:59:59;;;;;;;1.35;1.15;;;0.10;99.90;;;;;;4756233;30;20052;-81
2021/01/27 16:02:26;;;;;;;2.20;1.48;;;0.10;99.90;;;;;;4741411;30;20431;-82
2021/01/27 16:56:32;;;;;;;2.83;1.90;;;-0.10;99.90;;;;;;4757363;30;20188;-79
2021/01/27 16:59:03;;;;;;;2.22;1.73;;;0.00;99.90;;;;;;4735350;30;20044;-79
2021/01/27 17:01:30;;;;;;;2.60;1.92;;;0.00;99.90;;;;;;4735176;30;20139;-78
2021/01/27 17:04:01;;;;;;;2.83;2.38;;;0.00;99.90;;;;;;4734280;30;20600;-76
2021/01/27 17:06:33;;;;;;;3.38;2.10;;;0.00;99.90;;;;;;4733331;30;20053;-76
2021/01/27 17:09:04;;;;;;;2.50;2.03;;;0.00;99.90;;;;;;4734460;30;20052;-76
2021/01/27 17:11:30;;;;;;;5.43;2.30;;;0.10;99.90;;;;;;4734048;30;20584;-80
2021/01/27 17:13:57;;;;;;;2.95;2.20;;;0.40;99.90;;;;;;4736446;30;20052;-80
2021/01/27 17:16:23;;;;;;;3.92;2.10;;;0.30;99.90;;;;;;4736478;30;20135;-78
2021/01/27 17:18:54;;;;;;;3.42;2.72;;;0.20;99.90;;;;;;4734762;30;20147;-79
2021/01/27 17:21:26;;;;;;;4.13;3.08;;;0.10;99.90;;;;;;4748378;30;20139;-79